sensor_id;sensor_type;location;lat;lon;timestamp;pressure;altitude;pressure_sealevel;temperature;humidity
44351;BME280;62766;62.622;17.912;2023-06-22T00:00:01;100449.51;;;17.70;73.69
44351;BME280;62766;62.622;17.912;2023-06-22T00:02:29;100443.10;;;17.84;72.96
44351;BME280;62766;62.622;17.912;2023-06-22T00:04:58;100442.50;;;17.88;72.51
44351;BME280;62766;62.622;17.912;2023-06-22T00:07:27;100437.61;;;17.87;73.04
44351;BME280;62766;62.622;17.912;2023-06-22T00:09:55;100429.92;;;17.90;73.02
44351;BME280;62766;62.622;17.912;2023-06-22T00:12:25;100427.25;;;18.01;73.14
44351;BME280;62766;62.622;17.912;2023-06-22T00:14:54;100428.16;;;17.88;73.51
44351;BME280;62766;62.622;17.912;2023-06-22T00:17:23;100430.07;;;18.09;73.53
44351;BME280;62766;62.622;17.912;2023-06-22T00:19:51;100424.98;;;17.90;73.44
44351;BME280;62766;62.622;17.912;2023-06-22T00:22:20;100425.14;;;18.09;73.83
44351;BME280;62766;62.622;17.912;2023-06-22T00:24:48;100424.31;;;18.05;73.57
44351;BME280;62766;62.622;17.912;2023-06-22T00:27:18;100432.35;;;18.12;73.20
44351;BME280;62766;62.622;17.912;2023-06-22T00:29:47;100431.31;;;18.10;73.17
44351;BME280;62766;62.622;17.912;2023-06-22T00:32:15;100430.09;;;18.18;73.15
44351;BME280;62766;62.622;17.912;2023-06-22T00:34:44;100426.85;;;18.18;72.89
44351;BME280;62766;62.622;17.912;2023-06-22T00:37:13;100428.00;;;18.28;72.65
44351;BME280;62766;62.622;17.912;2023-06-22T00:39:42;100423.59;;;18.25;72.76
44351;BME280;62766;62.622;17.912;2023-06-22T00:42:11;100420.63;;;18.37;72.87
44351;BME280;62766;62.622;17.912;2023-06-22T00:44:40;100418.61;;;18.31;72.70
44351;BME280;62766;62.622;17.912;2023-06-22T00:47:08;100414.71;;;18.21;73.01
44351;BME280;62766;62.622;17.912;2023-06-22T00:49:38;100412.53;;;18.28;73.01
44351;BME280;62766;62.622;17.912;2023-06-22T00:52:08;100412.53;;;18.36;73.22
44351;BME280;62766;62.622;17.912;2023-06-22T00:54:38;100413.48;;;18.22;74.08
44351;BME280;62766;62.622;17.912;2023-06-22T00:57:06;100410.47;;;18.13;74.06
44351;BME280;62766;62.622;17.912;2023-06-22T00:59:34;100410.26;;;18.35;74.28
44351;BME280;62766;62.622;17.912;2023-06-22T01:02:03;100411.31;;;18.30;73.94
44351;BME280;62766;62.622;17.912;2023-06-22T01:04:35;100410.00;;;18.23;74.00
44351;BME280;62766;62.622;17.912;2023-06-22T01:07:10;100412.65;;;18.23;74.28
44351;BME280;62766;62.622;17.912;2023-06-22T01:09:49;100408.42;;;18.35;74.12
44351;BME280;62766;62.622;17.912;2023-06-22T01:12:19;100405.57;;;18.21;73.77
44351;BME280;62766;62.622;17.912;2023-06-22T01:14:53;100396.59;;;18.41;73.67
44351;BME280;62766;62.622;17.912;2023-06-22T01:17:24;100394.28;;;18.54;73.39
44351;BME280;62766;62.622;17.912;2023-06-22T01:19:54;100388.82;;;18.43;73.92
44351;BME280;62766;62.622;17.912;2023-06-22T01:22:26;100382.21;;;18.46;73.57
44351;BME280;62766;62.622;17.912;2023-06-22T01:25:07;100378.73;;;18.42;73.45
44351;BME280;62766;62.622;17.912;2023-06-22T01:27:43;100372.82;;;18.42;73.42
44351;BME280;62766;62.622;17.912;2023-06-22T01:30:16;100364.83;;;18.45;72.76
44351;BME280;62766;62.622;17.912;2023-06-22T01:32:48;100364.02;;;18.51;72.64
44351;BME280;62766;62.622;17.912;2023-06-22T01:35:18;100362.45;;;18.60;72.85
44351;BME280;62766;62.622;17.912;2023-06-22T01:37:49;100360.15;;;18.55;72.87
44351;BME280;62766;62.622;17.912;2023-06-22T01:40:19;100363.19;;;18.62;73.47
44351;BME280;62766;62.622;17.912;2023-06-22T01:42:48;100368.95;;;18.35;73.81
44351;BME280;62766;62.622;17.912;2023-06-22T01:45:19;100368.96;;;18.58;73.81
44351;BME280;62766;62.622;17.912;2023-06-22T01:47:47;100364.70;;;18.57;73.66
44351;BME280;62766;62.622;17.912;2023-06-22T01:50:17;100360.22;;;18.48;73.61
44351;BME280;62766;62.622;17.912;2023-06-22T01:52:46;100361.06;;;18.51;73.53
44351;BME280;62766;62.622;17.912;2023-06-22T01:55:14;100362.36;;;18.54;73.71
44351;BME280;62766;62.622;17.912;2023-06-22T01:57:43;100357.98;;;18.66;73.67
44351;BME280;62766;62.622;17.912;2023-06-22T02:00:13;100353.36;;;18.68;73.44
44351;BME280;62766;62.622;17.912;2023-06-22T02:02:47;100350.52;;;18.69;73.74
44351;BME280;62766;62.622;17.912;2023-06-22T02:05:21;100352.84;;;18.66;74.36
44351;BME280;62766;62.622;17.912;2023-06-22T02:07:56;100356.48;;;18.64;74.11
44351;BME280;62766;62.622;17.912;2023-06-22T02:10:29;100356.03;;;18.58;74.46
44351;BME280;62766;62.622;17.912;2023-06-22T02:12:59;100354.51;;;18.50;74.18
44351;BME280;62766;62.622;17.912;2023-06-22T02:15:28;100352.70;;;18.57;74.15
44351;BME280;62766;62.622;17.912;2023-06-22T02:17:57;100352.69;;;18.56;73.84
44351;BME280;62766;62.622;17.912;2023-06-22T02:20:26;100346.92;;;18.62;73.62
44351;BME280;62766;62.622;17.912;2023-06-22T02:22:55;100347.50;;;18.68;73.74
44351;BME280;62766;62.622;17.912;2023-06-22T02:25:24;100339.80;;;18.53;73.75
44351;BME280;62766;62.622;17.912;2023-06-22T02:27:52;100337.89;;;18.68;73.66
44351;BME280;62766;62.622;17.912;2023-06-22T02:30:22;100337.17;;;18.58;73.83
44351;BME280;62766;62.622;17.912;2023-06-22T02:32:51;100338.66;;;18.73;73.59
44351;BME280;62766;62.622;17.912;2023-06-22T02:35:18;100346.40;;;18.72;74.29
44351;BME280;62766;62.622;17.912;2023-06-22T02:37:47;100349.24;;;18.73;74.21
44351;BME280;62766;62.622;17.912;2023-06-22T02:40:14;100351.10;;;18.63;74.16
44351;BME280;62766;62.622;17.912;2023-06-22T02:42:43;100351.61;;;18.70;74.32
44351;BME280;62766;62.622;17.912;2023-06-22T02:45:11;100355.73;;;18.64;74.74
44351;BME280;62766;62.622;17.912;2023-06-22T02:47:40;100361.09;;;18.65;74.50
44351;BME280;62766;62.622;17.912;2023-06-22T02:50:09;100360.52;;;18.73;74.32
44351;BME280;62766;62.622;17.912;2023-06-22T02:52:38;100363.81;;;18.88;74.24
44351;BME280;62766;62.622;17.912;2023-06-22T02:55:08;100366.01;;;18.59;74.19
44351;BME280;62766;62.622;17.912;2023-06-22T02:57:36;100359.11;;;18.71;74.07
44351;BME280;62766;62.622;17.912;2023-06-22T03:00:07;100359.45;;;18.72;73.96
44351;BME280;62766;62.622;17.912;2023-06-22T03:02:35;100357.36;;;18.68;74.04
44351;BME280;62766;62.622;17.912;2023-06-22T03:05:05;100353.46;;;18.71;74.28
44351;BME280;62766;62.622;17.912;2023-06-22T03:07:34;100352.70;;;18.81;74.03
44351;BME280;62766;62.622;17.912;2023-06-22T03:10:02;100352.02;;;18.73;74.46
44351;BME280;62766;62.622;17.912;2023-06-22T03:12:31;100352.84;;;18.85;74.33
44351;BME280;62766;62.622;17.912;2023-06-22T03:15:00;100347.51;;;18.82;74.08
44351;BME280;62766;62.622;17.912;2023-06-22T03:17:29;100346.60;;;18.75;73.92
44351;BME280;62766;62.622;17.912;2023-06-22T03:19:58;100346.53;;;18.68;74.10
44351;BME280;62766;62.622;17.912;2023-06-22T03:22:26;100343.45;;;18.77;74.38
44351;BME280;62766;62.622;17.912;2023-06-22T03:24:55;100340.01;;;18.91;74.34
44351;BME280;62766;62.622;17.912;2023-06-22T03:27:24;100335.53;;;18.85;74.75
44351;BME280;62766;62.622;17.912;2023-06-22T03:29:52;100331.45;;;18.89;74.89
44351;BME280;62766;62.622;17.912;2023-06-22T03:32:20;100326.90;;;18.68;75.15
44351;BME280;62766;62.622;17.912;2023-06-22T03:34:50;100326.85;;;18.85;75.02
44351;BME280;62766;62.622;17.912;2023-06-22T03:37:18;100324.52;;;19.04;75.40
44351;BME280;62766;62.622;17.912;2023-06-22T03:39:47;100325.09;;;18.90;75.00
44351;BME280;62766;62.622;17.912;2023-06-22T03:42:16;100324.56;;;18.87;74.89
44351;BME280;62766;62.622;17.912;2023-06-22T03:44:44;100337.67;;;19.05;74.64
44351;BME280;62766;62.622;17.912;2023-06-22T03:47:13;100339.11;;;18.77;75.31
44351;BME280;62766;62.622;17.912;2023-06-22T03:49:42;100339.95;;;18.64;75.42
44351;BME280;62766;62.622;17.912;2023-06-22T03:52:10;100347.73;;;18.74;76.33
44351;BME280;62766;62.622;17.912;2023-06-22T03:54:39;100343.98;;;18.75;76.07
44351;BME280;62766;62.622;17.912;2023-06-22T03:57:07;100336.21;;;18.84;75.81
44351;BME280;62766;62.622;17.912;2023-06-22T03:59:36;100336.51;;;18.78;75.68
44351;BME280;62766;62.622;17.912;2023-06-22T04:03:36;100340.45;;;18.77;76.49
44351;BME280;62766;62.622;17.912;2023-06-22T04:06:04;100337.31;;;18.74;76.72
44351;BME280;62766;62.622;17.912;2023-06-22T04:08:32;100339.99;;;18.85;76.54
44351;BME280;62766;62.622;17.912;2023-06-22T04:11:00;100342.73;;;18.82;77.26
44351;BME280;62766;62.622;17.912;2023-06-22T04:13:28;100337.27;;;18.76;77.60
44351;BME280;62766;62.622;17.912;2023-06-22T04:15:56;100333.05;;;18.74;77.66
44351;BME280;62766;62.622;17.912;2023-06-22T04:18:25;100332.16;;;18.67;77.64
44351;BME280;62766;62.622;17.912;2023-06-22T04:20:53;100330.21;;;18.82;77.89
44351;BME280;62766;62.622;17.912;2023-06-22T04:23:22;100329.08;;;18.89;78.05
44351;BME280;62766;62.622;17.912;2023-06-22T04:25:50;100325.16;;;18.82;77.47
44351;BME280;62766;62.622;17.912;2023-06-22T04:28:19;100328.34;;;18.73;77.54
44351;BME280;62766;62.622;17.912;2023-06-22T04:30:48;100328.06;;;18.80;77.95
44351;BME280;62766;62.622;17.912;2023-06-22T04:33:17;100325.45;;;18.66;78.16
44351;BME280;62766;62.622;17.912;2023-06-22T04:35:46;100326.85;;;18.74;78.23
44351;BME280;62766;62.622;17.912;2023-06-22T04:38:15;100325.33;;;18.59;78.84
44351;BME280;62766;62.622;17.912;2023-06-22T04:40:44;100326.50;;;18.58;78.92
44351;BME280;62766;62.622;17.912;2023-06-22T04:43:12;100328.73;;;18.68;79.30
44351;BME280;62766;62.622;17.912;2023-06-22T04:45:41;100325.62;;;18.62;79.09
44351;BME280;62766;62.622;17.912;2023-06-22T04:48:09;100330.43;;;18.63;79.44
44351;BME280;62766;62.622;17.912;2023-06-22T04:50:37;100325.96;;;18.61;79.18
44351;BME280;62766;62.622;17.912;2023-06-22T04:53:07;100326.61;;;18.53;79.66
44351;BME280;62766;62.622;17.912;2023-06-22T04:55:35;100326.21;;;18.49;79.92
44351;BME280;62766;62.622;17.912;2023-06-22T04:58:03;100323.35;;;18.61;79.83
44351;BME280;62766;62.622;17.912;2023-06-22T05:00:32;100323.42;;;18.55;80.09
44351;BME280;62766;62.622;17.912;2023-06-22T05:03:00;100323.91;;;18.42;80.21
44351;BME280;62766;62.622;17.912;2023-06-22T05:05:29;100326.98;;;18.43;80.49
44351;BME280;62766;62.622;17.912;2023-06-22T05:07:57;100324.00;;;18.42;80.92
44351;BME280;62766;62.622;17.912;2023-06-22T05:10:26;100326.20;;;18.49;81.16
44351;BME280;62766;62.622;17.912;2023-06-22T05:12:55;100325.29;;;18.49;80.66
44351;BME280;62766;62.622;17.912;2023-06-22T05:15:23;100319.15;;;18.49;80.69
44351;BME280;62766;62.622;17.912;2023-06-22T05:17:52;100319.41;;;18.64;80.69
44351;BME280;62766;62.622;17.912;2023-06-22T05:20:21;100318.39;;;18.57;80.23
44351;BME280;62766;62.622;17.912;2023-06-22T05:22:50;100317.49;;;18.61;79.80
44351;BME280;62766;62.622;17.912;2023-06-22T05:25:19;100315.63;;;18.63;79.78
44351;BME280;62766;62.622;17.912;2023-06-22T05:27:48;100314.48;;;18.89;79.01
44351;BME280;62766;62.622;17.912;2023-06-22T05:30:17;100312.71;;;18.97;79.39
44351;BME280;62766;62.622;17.912;2023-06-22T05:32:45;100307.70;;;18.83;79.78
44351;BME280;62766;62.622;17.912;2023-06-22T05:35:14;100305.86;;;18.82;79.33
44351;BME280;62766;62.622;17.912;2023-06-22T05:37:42;100299.77;;;18.91;79.25
44351;BME280;62766;62.622;17.912;2023-06-22T05:40:12;100296.52;;;18.98;79.40
44351;BME280;62766;62.622;17.912;2023-06-22T05:42:41;100294.74;;;19.03;78.77
44351;BME280;62766;62.622;17.912;2023-06-22T05:45:09;100295.33;;;19.10;79.04
44351;BME280;62766;62.622;17.912;2023-06-22T05:47:38;100294.66;;;18.95;78.15
44351;BME280;62766;62.622;17.912;2023-06-22T05:50:07;100288.85;;;19.11;77.68
44351;BME280;62766;62.622;17.912;2023-06-22T05:52:36;100289.14;;;19.02;77.71
44351;BME280;62766;62.622;17.912;2023-06-22T05:55:05;100286.66;;;19.29;77.82
44351;BME280;62766;62.622;17.912;2023-06-22T05:57:34;100283.98;;;19.42;77.92
44351;BME280;62766;62.622;17.912;2023-06-22T06:00:04;100280.39;;;19.40;77.98
44351;BME280;62766;62.622;17.912;2023-06-22T06:02:34;100280.47;;;19.48;78.07
44351;BME280;62766;62.622;17.912;2023-06-22T06:05:02;100273.79;;;19.62;77.60
44351;BME280;62766;62.622;17.912;2023-06-22T06:07:31;100269.19;;;19.70;76.63
44351;BME280;62766;62.622;17.912;2023-06-22T06:10:00;100267.48;;;19.91;76.22
44351;BME280;62766;62.622;17.912;2023-06-22T06:12:28;100267.22;;;19.92;76.40
44351;BME280;62766;62.622;17.912;2023-06-22T06:14:57;100268.11;;;20.14;74.77
44351;BME280;62766;62.622;17.912;2023-06-22T06:17:25;100271.33;;;20.10;75.47
44351;BME280;62766;62.622;17.912;2023-06-22T06:19:54;100272.64;;;20.19;74.99
44351;BME280;62766;62.622;17.912;2023-06-22T06:22:23;100275.13;;;20.18;74.12
44351;BME280;62766;62.622;17.912;2023-06-22T06:24:51;100272.74;;;20.02;74.56
44351;BME280;62766;62.622;17.912;2023-06-22T06:27:20;100270.19;;;20.01;75.04
44351;BME280;62766;62.622;17.912;2023-06-22T06:29:49;100268.71;;;20.07;75.08
44351;BME280;62766;62.622;17.912;2023-06-22T06:32:17;100270.16;;;20.08;75.87
44351;BME280;62766;62.622;17.912;2023-06-22T06:34:46;100265.97;;;20.15;75.04
44351;BME280;62766;62.622;17.912;2023-06-22T06:37:14;100259.13;;;20.28;74.32
44351;BME280;62766;62.622;17.912;2023-06-22T06:39:42;100258.05;;;20.38;73.35
44351;BME280;62766;62.622;17.912;2023-06-22T06:42:11;100261.48;;;20.51;75.26
44351;BME280;62766;62.622;17.912;2023-06-22T06:44:40;100262.02;;;20.66;72.32
44351;BME280;62766;62.622;17.912;2023-06-22T06:47:09;100266.53;;;20.70;72.94
44351;BME280;62766;62.622;17.912;2023-06-22T06:49:37;100263.91;;;20.58;72.15
44351;BME280;62766;62.622;17.912;2023-06-22T06:52:07;100261.99;;;20.47;72.92
44351;BME280;62766;62.622;17.912;2023-06-22T06:54:36;100262.77;;;20.50;72.95
44351;BME280;62766;62.622;17.912;2023-06-22T06:57:04;100263.67;;;20.49;72.39
44351;BME280;62766;62.622;17.912;2023-06-22T06:59:33;100265.74;;;20.52;73.25
44351;BME280;62766;62.622;17.912;2023-06-22T07:02:02;100266.08;;;20.37;72.55
44351;BME280;62766;62.622;17.912;2023-06-22T07:04:30;100266.14;;;20.41;73.76
44351;BME280;62766;62.622;17.912;2023-06-22T07:07:01;100268.88;;;20.41;73.18
44351;BME280;62766;62.622;17.912;2023-06-22T07:09:31;100268.00;;;20.45;73.10
44351;BME280;62766;62.622;17.912;2023-06-22T07:12:00;100267.80;;;20.48;75.30
44351;BME280;62766;62.622;17.912;2023-06-22T07:14:27;100275.52;;;20.30;74.57
44351;BME280;62766;62.622;17.912;2023-06-22T07:16:55;100277.00;;;20.35;75.45
44351;BME280;62766;62.622;17.912;2023-06-22T07:19:25;100272.94;;;20.35;76.20
44351;BME280;62766;62.622;17.912;2023-06-22T07:21:54;100272.03;;;20.31;75.20
44351;BME280;62766;62.622;17.912;2023-06-22T07:24:24;100277.38;;;20.43;74.57
44351;BME280;62766;62.622;17.912;2023-06-22T07:26:53;100275.82;;;20.66;74.79
44351;BME280;62766;62.622;17.912;2023-06-22T07:29:22;100275.56;;;20.92;74.13
44351;BME280;62766;62.622;17.912;2023-06-22T07:31:50;100273.17;;;20.75;72.69
44351;BME280;62766;62.622;17.912;2023-06-22T07:34:19;100272.52;;;21.04;74.13
44351;BME280;62766;62.622;17.912;2023-06-22T07:36:49;100272.69;;;21.06;72.04
44351;BME280;62766;62.622;17.912;2023-06-22T07:39:17;100270.00;;;21.09;71.08
44351;BME280;62766;62.622;17.912;2023-06-22T07:41:46;100268.88;;;21.16;70.28
44351;BME280;62766;62.622;17.912;2023-06-22T07:44:14;100266.79;;;21.20;70.89
44351;BME280;62766;62.622;17.912;2023-06-22T07:46:42;100267.39;;;21.31;71.49
44351;BME280;62766;62.622;17.912;2023-06-22T07:49:12;100266.20;;;21.20;72.11
44351;BME280;62766;62.622;17.912;2023-06-22T07:51:40;100265.63;;;21.15;71.93
44351;BME280;62766;62.622;17.912;2023-06-22T07:54:10;100266.65;;;21.12;72.73
44351;BME280;62766;62.622;17.912;2023-06-22T07:56:38;100269.21;;;21.12;72.65
44351;BME280;62766;62.622;17.912;2023-06-22T07:59:06;100270.38;;;20.92;71.78
44351;BME280;62766;62.622;17.912;2023-06-22T08:01:34;100269.34;;;20.95;72.99
44351;BME280;62766;62.622;17.912;2023-06-22T08:04:03;100268.42;;;20.84;73.86
44351;BME280;62766;62.622;17.912;2023-06-22T08:06:32;100267.74;;;20.93;73.94
44351;BME280;62766;62.622;17.912;2023-06-22T08:09:01;100266.36;;;20.98;74.23
44351;BME280;62766;62.622;17.912;2023-06-22T08:11:30;100265.01;;;21.09;73.34
44351;BME280;62766;62.622;17.912;2023-06-22T08:13:58;100264.00;;;21.05;71.77
44351;BME280;62766;62.622;17.912;2023-06-22T08:16:27;100262.64;;;21.10;71.89
44351;BME280;62766;62.622;17.912;2023-06-22T08:18:56;100264.20;;;21.11;72.17
44351;BME280;62766;62.622;17.912;2023-06-22T08:21:25;100264.57;;;21.16;72.00
44351;BME280;62766;62.622;17.912;2023-06-22T08:23:54;100263.39;;;21.27;70.73
44351;BME280;62766;62.622;17.912;2023-06-22T08:26:22;100263.37;;;21.34;72.75
44351;BME280;62766;62.622;17.912;2023-06-22T08:28:50;100261.51;;;21.30;71.64
44351;BME280;62766;62.622;17.912;2023-06-22T08:31:18;100260.45;;;21.42;71.36
44351;BME280;62766;62.622;17.912;2023-06-22T08:33:47;100264.47;;;21.54;72.01
44351;BME280;62766;62.622;17.912;2023-06-22T08:36:16;100264.79;;;21.73;71.99
44351;BME280;62766;62.622;17.912;2023-06-22T08:38:46;100265.63;;;21.97;72.46
44351;BME280;62766;62.622;17.912;2023-06-22T08:41:15;100263.14;;;22.02;69.18
44351;BME280;62766;62.622;17.912;2023-06-22T08:43:43;100258.00;;;22.19;68.34
44351;BME280;62766;62.622;17.912;2023-06-22T08:46:11;100259.02;;;22.53;70.05
44351;BME280;62766;62.622;17.912;2023-06-22T08:48:40;100257.20;;;22.79;67.49
44351;BME280;62766;62.622;17.912;2023-06-22T08:51:07;100255.94;;;22.87;67.89
44351;BME280;62766;62.622;17.912;2023-06-22T08:53:35;100257.40;;;22.90;64.89
44351;BME280;62766;62.622;17.912;2023-06-22T08:56:04;100256.37;;;22.81;65.56
44351;BME280;62766;62.622;17.912;2023-06-22T08:58:33;100258.36;;;22.84;65.20
44351;BME280;62766;62.622;17.912;2023-06-22T09:01:02;100256.09;;;22.86;65.25
44351;BME280;62766;62.622;17.912;2023-06-22T09:03:30;100258.25;;;22.82;66.03
44351;BME280;62766;62.622;17.912;2023-06-22T09:05:58;100261.17;;;22.98;65.04
44351;BME280;62766;62.622;17.912;2023-06-22T09:08:27;100262.79;;;22.94;65.46
44351;BME280;62766;62.622;17.912;2023-06-22T09:10:56;100264.28;;;23.02;66.08
44351;BME280;62766;62.622;17.912;2023-06-22T09:13:25;100258.36;;;23.09;65.33
44351;BME280;62766;62.622;17.912;2023-06-22T09:15:54;100258.06;;;23.08;64.68
44351;BME280;62766;62.622;17.912;2023-06-22T09:18:22;100256.06;;;22.98;63.93
44351;BME280;62766;62.622;17.912;2023-06-22T09:20:51;100255.85;;;22.82;65.63
44351;BME280;62766;62.622;17.912;2023-06-22T09:23:19;100254.71;;;22.68;65.73
44351;BME280;62766;62.622;17.912;2023-06-22T09:25:48;100258.71;;;22.66;65.72
44351;BME280;62766;62.622;17.912;2023-06-22T09:28:16;100264.37;;;22.65;66.12
44351;BME280;62766;62.622;17.912;2023-06-22T09:30:45;100267.75;;;22.53;66.19
44351;BME280;62766;62.622;17.912;2023-06-22T09:33:14;100271.16;;;22.46;65.46
44351;BME280;62766;62.622;17.912;2023-06-22T09:35:43;100274.13;;;22.25;65.50
44351;BME280;62766;62.622;17.912;2023-06-22T09:38:12;100279.81;;;21.81;66.95
44351;BME280;62766;62.622;17.912;2023-06-22T09:40:41;100278.96;;;21.71;67.40
44351;BME280;62766;62.622;17.912;2023-06-22T09:43:10;100274.27;;;21.52;67.82
44351;BME280;62766;62.622;17.912;2023-06-22T09:45:39;100271.44;;;21.90;68.51
44351;BME280;62766;62.622;17.912;2023-06-22T09:48:08;100270.38;;;22.54;68.63
44351;BME280;62766;62.622;17.912;2023-06-22T09:50:36;100271.05;;;22.87;67.55
44351;BME280;62766;62.622;17.912;2023-06-22T09:53:05;100267.75;;;22.99;66.19
44351;BME280;62766;62.622;17.912;2023-06-22T09:55:33;100267.26;;;23.12;64.41
44351;BME280;62766;62.622;17.912;2023-06-22T09:58:01;100265.82;;;22.78;65.16
44351;BME280;62766;62.622;17.912;2023-06-22T10:03:38;100269.57;;;22.13;67.38
44351;BME280;62766;62.622;17.912;2023-06-22T10:06:07;100268.31;;;22.00;68.01
44351;BME280;62766;62.622;17.912;2023-06-22T10:08:36;100268.38;;;21.95;67.63
44351;BME280;62766;62.622;17.912;2023-06-22T10:11:05;100269.31;;;21.78;68.39
44351;BME280;62766;62.622;17.912;2023-06-22T10:13:34;100272.03;;;21.94;68.40
44351;BME280;62766;62.622;17.912;2023-06-22T10:16:02;100264.79;;;21.78;68.58
44351;BME280;62766;62.622;17.912;2023-06-22T10:18:31;100265.51;;;21.82;69.12
44351;BME280;62766;62.622;17.912;2023-06-22T10:21:01;100266.69;;;21.70;69.86
44351;BME280;62766;62.622;17.912;2023-06-22T10:23:29;100269.39;;;21.78;68.99
44351;BME280;62766;62.622;17.912;2023-06-22T10:25:58;100266.52;;;21.64;68.61
44351;BME280;62766;62.622;17.912;2023-06-22T10:28:26;100263.63;;;21.69;69.36
44351;BME280;62766;62.622;17.912;2023-06-22T10:30:55;100260.42;;;21.97;69.25
44351;BME280;62766;62.622;17.912;2023-06-22T10:33:24;100258.32;;;22.06;68.90
44351;BME280;62766;62.622;17.912;2023-06-22T10:35:52;100257.60;;;22.11;67.65
44351;BME280;62766;62.622;17.912;2023-06-22T10:38:21;100257.48;;;22.14;67.48
44351;BME280;62766;62.622;17.912;2023-06-22T10:40:49;100253.45;;;22.25;66.71
44351;BME280;62766;62.622;17.912;2023-06-22T10:43:18;100249.93;;;22.29;66.78
44351;BME280;62766;62.622;17.912;2023-06-22T10:45:47;100244.96;;;22.41;67.86
44351;BME280;62766;62.622;17.912;2023-06-22T10:48:16;100243.64;;;22.45;66.80
44351;BME280;62766;62.622;17.912;2023-06-22T10:50:44;100244.39;;;22.53;66.39
44351;BME280;62766;62.622;17.912;2023-06-22T10:53:12;100243.83;;;22.50;65.89
44351;BME280;62766;62.622;17.912;2023-06-22T10:55:41;100243.78;;;22.48;66.17
44351;BME280;62766;62.622;17.912;2023-06-22T10:58:09;100250.01;;;22.51;66.57
44351;BME280;62766;62.622;17.912;2023-06-22T11:00:37;100250.63;;;22.32;65.73
44351;BME280;62766;62.622;17.912;2023-06-22T11:03:06;100244.58;;;22.34;66.21
44351;BME280;62766;62.622;17.912;2023-06-22T11:05:34;100244.35;;;22.50;66.37
44351;BME280;62766;62.622;17.912;2023-06-22T11:08:02;100244.62;;;22.70;66.28
44351;BME280;62766;62.622;17.912;2023-06-22T11:10:30;100243.66;;;22.89;65.44
44351;BME280;62766;62.622;17.912;2023-06-22T11:13:00;100247.03;;;22.89;64.95
44351;BME280;62766;62.622;17.912;2023-06-22T11:15:28;100253.33;;;23.16;65.99
44351;BME280;62766;62.622;17.912;2023-06-22T11:17:58;100256.96;;;23.56;65.55
44351;BME280;62766;62.622;17.912;2023-06-22T11:20:27;100261.69;;;23.90;62.57
44351;BME280;62766;62.622;17.912;2023-06-22T11:22:56;100263.80;;;24.31;62.11
44351;BME280;62766;62.622;17.912;2023-06-22T11:25:25;100261.81;;;24.53;59.57
44351;BME280;62766;62.622;17.912;2023-06-22T11:27:53;100261.51;;;24.76;58.59
44351;BME280;62766;62.622;17.912;2023-06-22T11:30:21;100258.62;;;25.05;58.48
44351;BME280;62766;62.622;17.912;2023-06-22T11:32:50;100258.44;;;25.23;59.04
44351;BME280;62766;62.622;17.912;2023-06-22T11:35:19;100256.52;;;25.24;57.60
44351;BME280;62766;62.622;17.912;2023-06-22T11:37:47;100254.89;;;25.43;57.06
44351;BME280;62766;62.622;17.912;2023-06-22T11:40:15;100250.51;;;25.54;56.49
44351;BME280;62766;62.622;17.912;2023-06-22T11:42:44;100248.69;;;25.72;57.65
44351;BME280;62766;62.622;17.912;2023-06-22T11:45:13;100241.34;;;25.94;54.63
44351;BME280;62766;62.622;17.912;2023-06-22T11:47:42;100238.56;;;25.95;54.83
44351;BME280;62766;62.622;17.912;2023-06-22T11:50:10;100235.79;;;25.73;55.93
44351;BME280;62766;62.622;17.912;2023-06-22T11:52:39;100233.56;;;25.88;54.63
44351;BME280;62766;62.622;17.912;2023-06-22T11:55:08;100235.69;;;25.89;54.02
44351;BME280;62766;62.622;17.912;2023-06-22T11:57:38;100235.12;;;26.01;53.72
44351;BME280;62766;62.622;17.912;2023-06-22T12:00:08;100232.23;;;26.00;53.86
44351;BME280;62766;62.622;17.912;2023-06-22T12:02:36;100231.03;;;26.12;53.29
44351;BME280;62766;62.622;17.912;2023-06-22T12:05:05;100229.83;;;26.30;53.77
44351;BME280;62766;62.622;17.912;2023-06-22T12:07:33;100232.66;;;26.42;52.27
44351;BME280;62766;62.622;17.912;2023-06-22T12:10:03;100228.56;;;26.36;51.48
44351;BME280;62766;62.622;17.912;2023-06-22T12:12:32;100223.60;;;26.48;51.81
44351;BME280;62766;62.622;17.912;2023-06-22T12:15:01;100224.48;;;26.15;50.90
44351;BME280;62766;62.622;17.912;2023-06-22T12:17:29;100239.03;;;25.48;52.12
44351;BME280;62766;62.622;17.912;2023-06-22T12:20:00;100236.39;;;24.84;54.13
44351;BME280;62766;62.622;17.912;2023-06-22T12:22:28;100244.78;;;24.19;55.32
44351;BME280;62766;62.622;17.912;2023-06-22T12:24:57;100262.94;;;23.77;57.53
44351;BME280;62766;62.622;17.912;2023-06-22T12:27:26;100282.46;;;23.51;58.65
44351;BME280;62766;62.622;17.912;2023-06-22T12:29:53;100292.71;;;23.37;61.47
44351;BME280;62766;62.622;17.912;2023-06-22T12:32:22;100286.73;;;23.36;63.71
44351;BME280;62766;62.622;17.912;2023-06-22T12:34:51;100277.79;;;23.43;63.22
44351;BME280;62766;62.622;17.912;2023-06-22T12:37:19;100276.42;;;23.46;67.20
44351;BME280;62766;62.622;17.912;2023-06-22T12:39:47;100275.19;;;23.53;67.42
44351;BME280;62766;62.622;17.912;2023-06-22T12:42:15;100277.51;;;24.00;66.72
44351;BME280;62766;62.622;17.912;2023-06-22T12:44:43;100277.68;;;24.32;67.87
44351;BME280;62766;62.622;17.912;2023-06-22T12:47:11;100270.51;;;24.97;64.45
44351;BME280;62766;62.622;17.912;2023-06-22T12:49:39;100270.28;;;25.31;62.21
44351;BME280;62766;62.622;17.912;2023-06-22T12:52:09;100274.37;;;25.51;62.35